createdAt,value
2022-10-18T00:01:14.481Z,73.73
2022-10-18T00:03:45.067Z,73.83
2022-10-18T00:06:14.413Z,73.88
2022-10-18T00:08:43.639Z,73.80
2022-10-18T00:11:13.254Z,73.97
2022-10-18T00:13:43.393Z,73.62
2022-10-18T00:16:15.645Z,73.68
2022-10-18T00:18:45.895Z,74.06
2022-10-18T00:21:18.596Z,73.83
2022-10-18T00:23:49.172Z,73.77
2022-10-18T00:26:23.661Z,73.93
2022-10-18T00:28:57.184Z,73.78
2022-10-18T00:31:27.741Z,73.82
2022-10-18T00:33:59.057Z,73.91
2022-10-18T00:36:29.616Z,74.04
2022-10-18T00:38:58.350Z,74.04
2022-10-18T00:41:31.270Z,74.10
2022-10-18T00:44:05.676Z,74.19
2022-10-18T00:46:39.094Z,73.97
2022-10-18T00:49:17.289Z,73.72
2022-10-18T00:51:52.307Z,73.43
2022-10-18T00:54:22.639Z,73.36
2022-10-18T00:56:53.389Z,73.03
2022-10-18T00:59:24.923Z,73.18
2022-10-18T01:01:55.039Z,73.00
2022-10-18T01:04:24.538Z,73.33
2022-10-18T01:07:00.573Z,73.40
2022-10-18T01:09:42.293Z,73.14
2022-10-18T01:12:17.173Z,73.05
2022-10-18T01:14:59.350Z,73.38
2022-10-18T01:17:29.567Z,73.14
2022-10-18T01:20:17.955Z,73.44
2022-10-18T01:22:50.726Z,73.23
2022-10-18T01:25:43.510Z,73.09
2022-10-18T01:28:43.378Z,73.61
2022-10-18T01:31:19.367Z,73.34
2022-10-18T01:33:54.930Z,73.41
2022-10-18T01:36:36.341Z,73.33
2022-10-18T01:39:09.102Z,73.42
2022-10-18T01:41:41.357Z,73.62
2022-10-18T01:44:16.993Z,73.42
2022-10-18T01:46:47.504Z,73.43
2022-10-18T01:49:17.076Z,73.63
2022-10-18T01:51:46.246Z,73.69
2022-10-18T01:54:19.888Z,73.78
2022-10-18T01:56:56.602Z,73.92
2022-10-18T01:59:38.177Z,74.13
2022-10-18T02:02:22.206Z,74.07
2022-10-18T02:05:07.894Z,73.98
2022-10-18T02:07:40.611Z,74.22
2022-10-18T02:12:44.966Z,73.70
2022-10-18T02:15:18.147Z,73.95
2022-10-18T02:17:48.110Z,74.54
2022-10-18T02:20:21.418Z,74.39
2022-10-18T02:22:51.613Z,74.08
2022-10-18T02:25:23.322Z,74.14
2022-10-18T02:27:57.457Z,74.35
2022-10-18T02:30:36.686Z,74.48
2022-10-18T02:33:12.683Z,74.56
2022-10-18T02:35:45.656Z,74.43
2022-10-18T02:38:18.133Z,74.81
2022-10-18T02:40:47.748Z,75.02
2022-10-18T02:43:16.170Z,74.84
2022-10-18T02:45:45.729Z,74.92
2022-10-18T02:48:15.651Z,75.22
2022-10-18T02:50:45.006Z,75.08
2022-10-18T02:53:14.541Z,74.81
2022-10-18T02:55:44.393Z,74.82
2022-10-18T02:58:15.113Z,74.79
2022-10-18T03:00:44.658Z,74.43
2022-10-18T03:03:13.422Z,74.33
2022-10-18T03:05:44.473Z,74.58
2022-10-18T03:08:13.738Z,74.55
2022-10-18T03:10:46.643Z,74.42
2022-10-18T03:13:16.955Z,74.20
2022-10-18T03:15:48.395Z,74.57
2022-10-18T03:18:17.823Z,74.46
2022-10-18T03:20:47.291Z,74.39
2022-10-18T03:23:16.736Z,74.46
2022-10-18T03:25:46.480Z,74.32
2022-10-18T03:28:21.457Z,74.76
2022-10-18T03:30:50.868Z,74.68
2022-10-18T03:33:20.162Z,74.76
2022-10-18T03:35:49.844Z,74.57
2022-10-18T03:38:19.027Z,74.86
2022-10-18T03:40:48.632Z,75.21
2022-10-18T03:43:17.831Z,75.36
2022-10-18T03:45:47.403Z,75.31
2022-10-18T03:48:16.544Z,75.27
2022-10-18T03:50:46.246Z,75.20
2022-10-18T03:53:15.964Z,75.08
2022-10-18T03:55:51.878Z,75.10
2022-10-18T03:58:38.386Z,75.18
2022-10-18T04:01:07.719Z,75.08
2022-10-18T04:03:36.470Z,74.80
2022-10-18T04:06:05.669Z,75.05
2022-10-18T04:08:34.847Z,74.91
2022-10-18T04:11:11.256Z,74.79
2022-10-18T04:13:40.701Z,74.87
2022-10-18T04:16:09.854Z,74.98
2022-10-18T04:18:39.059Z,75.28
2022-10-18T04:21:10.529Z,75.52
2022-10-18T04:23:39.920Z,75.74
2022-10-18T04:26:08.261Z,75.57
2022-10-18T04:28:40.458Z,75.51
2022-10-18T04:31:10.078Z,75.06
2022-10-18T04:33:39.214Z,75.11
2022-10-18T04:36:08.683Z,75.02
2022-10-18T04:38:38.066Z,74.85
2022-10-18T04:41:07.109Z,74.82
2022-10-18T04:43:35.903Z,75.33
2022-10-18T04:46:05.248Z,74.97
2022-10-18T04:48:34.343Z,74.41
2022-10-18T04:51:03.540Z,74.30
2022-10-18T04:53:33.034Z,74.22
2022-10-18T04:56:02.095Z,74.45
2022-10-18T04:58:31.328Z,74.77
2022-10-18T05:01:00.828Z,74.70
2022-10-18T05:03:30.308Z,74.84
2022-10-18T05:06:02.865Z,74.98
2022-10-18T05:08:33.950Z,75.12
2022-10-18T05:11:04.326Z,74.95
2022-10-18T05:13:33.704Z,75.03
2022-10-18T05:16:02.903Z,75.38
2022-10-18T05:18:34.387Z,75.96
2022-10-18T05:21:03.596Z,76.17
2022-10-18T05:23:32.727Z,75.99
2022-10-18T05:26:03.702Z,75.98
2022-10-18T05:28:39.589Z,76.32
2022-10-18T05:31:11.627Z,76.54
2022-10-18T05:33:40.877Z,76.71
2022-10-18T05:36:10.537Z,76.86
2022-10-18T05:38:43.360Z,76.85
2022-10-18T05:41:13.313Z,77.09
2022-10-18T05:43:42.451Z,77.56
2022-10-18T05:46:15.405Z,77.04
2022-10-18T05:48:50.106Z,77.49
2022-10-18T05:51:20.316Z,77.65
2022-10-18T05:53:48.865Z,77.78
2022-10-18T05:56:18.016Z,78.13
2022-10-18T05:58:50.221Z,77.66
2022-10-18T06:01:19.053Z,77.57
2022-10-18T06:03:48.688Z,78.07
2022-10-18T06:06:17.777Z,77.64
2022-10-18T06:08:49.518Z,77.87
2022-10-18T06:11:20.039Z,77.79
2022-10-18T06:13:50.944Z,77.55
2022-10-18T06:16:21.706Z,77.64
2022-10-18T06:18:51.903Z,77.49
2022-10-18T06:21:22.946Z,77.07
2022-10-18T06:23:54.149Z,76.69
2022-10-18T06:26:24.318Z,76.77
2022-10-18T06:28:53.810Z,76.34
2022-10-18T06:31:23.296Z,76.60
2022-10-18T06:33:52.580Z,76.70
2022-10-18T06:36:22.898Z,76.28
2022-10-18T06:38:52.103Z,76.42
2022-10-18T06:41:22.355Z,76.37
2022-10-18T06:43:51.519Z,75.79
2022-10-18T06:46:21.197Z,76.01
2022-10-18T06:48:50.705Z,75.43
2022-10-18T06:51:20.918Z,74.98
2022-10-18T06:53:59.687Z,74.59
2022-10-18T06:56:40.309Z,74.99
2022-10-18T06:59:11.339Z,74.53
2022-10-18T07:01:40.721Z,74.72
2022-10-18T07:04:09.957Z,73.96
2022-10-18T07:06:39.001Z,74.09
2022-10-18T07:09:07.453Z,73.53
2022-10-18T07:11:36.932Z,73.70
2022-10-18T07:14:06.461Z,73.31
2022-10-18T07:16:35.797Z,72.87
2022-10-18T07:19:05.325Z,72.42
2022-10-18T07:21:34.481Z,71.85
2022-10-18T07:24:04.103Z,71.04
2022-10-18T07:26:33.604Z,70.86
2022-10-18T07:29:07.660Z,70.83
2022-10-18T07:31:38.876Z,69.93
2022-10-18T07:34:09.317Z,69.82
2022-10-18T07:36:39.087Z,69.67
2022-10-18T07:39:09.746Z,68.84
2022-10-18T07:41:40.921Z,68.11
2022-10-18T07:44:12.020Z,68.08
2022-10-18T07:46:41.506Z,67.65
2022-10-18T07:49:10.693Z,67.18
2022-10-18T07:51:39.792Z,66.39
2022-10-18T07:54:09.309Z,65.78
2022-10-18T07:56:39.108Z,65.01
2022-10-18T07:59:10.448Z,65.12
2022-10-18T08:01:40.378Z,63.70
2022-10-18T08:04:15.393Z,63.13
2022-10-18T08:06:46.009Z,62.36
2022-10-18T08:09:14.306Z,62.02
2022-10-18T08:11:45.440Z,61.91
2022-10-18T08:14:15.797Z,61.13
2022-10-18T08:16:47.423Z,59.64
2022-10-18T08:19:16.857Z,59.97
2022-10-18T08:21:46.807Z,58.56
2022-10-18T08:24:16.246Z,57.83
2022-10-18T08:26:45.722Z,57.97
2022-10-18T08:29:23.287Z,58.17
2022-10-18T08:31:55.803Z,57.36
2022-10-18T08:34:25.305Z,57.42
2022-10-18T08:36:54.337Z,57.31
2022-10-18T08:39:23.712Z,56.65
2022-10-18T08:41:55.028Z,56.52
2022-10-18T08:44:27.851Z,55.43
2022-10-18T08:47:01.061Z,54.75
2022-10-18T08:49:35.134Z,53.68
2022-10-18T08:52:07.085Z,54.71
2022-10-18T08:54:40.283Z,54.33
2022-10-18T08:57:13.811Z,52.70
2022-10-18T08:59:44.617Z,53.35
2022-10-18T09:02:15.684Z,53.33
2022-10-18T09:04:50.133Z,51.62
2022-10-18T09:07:26.575Z,51.57
2022-10-18T09:10:01.898Z,51.14
2022-10-18T09:12:46.611Z,49.85
2022-10-18T09:15:18.609Z,49.35
2022-10-18T09:17:55.728Z,49.80
2022-10-18T09:20:26.459Z,47.39
2022-10-18T09:22:57.498Z,47.62
2022-10-18T09:25:32.964Z,47.52
2022-10-18T09:28:08.483Z,45.85
2022-10-18T09:30:41.308Z,45.41
2022-10-18T09:33:19.021Z,44.24
2022-10-18T09:35:51.060Z,43.91
2022-10-18T09:38:21.782Z,43.65
2022-10-18T09:40:56.305Z,44.38
2022-10-18T09:43:39.086Z,44.33
2022-10-18T09:46:09.072Z,43.86
2022-10-18T09:48:52.035Z,42.40
2022-10-18T09:51:24.561Z,41.57
2022-10-18T09:54:00.287Z,40.89
2022-10-18T09:56:37.881Z,41.51
2022-10-18T09:59:34.180Z,40.72
2022-10-18T10:02:04.476Z,41.58
2022-10-18T10:04:32.960Z,41.06
2022-10-18T10:07:02.598Z,40.89
2022-10-18T10:09:37.377Z,41.13
2022-10-18T10:12:24.608Z,40.19
2022-10-18T10:14:54.322Z,41.11
2022-10-18T10:17:26.750Z,41.33
2022-10-18T10:20:04.062Z,41.19
2022-10-18T10:22:37.727Z,41.05
2022-10-18T10:25:07.925Z,39.90
2022-10-18T10:27:45.677Z,39.54
2022-10-18T10:30:35.741Z,40.01
2022-10-18T10:33:06.425Z,39.69
2022-10-18T10:35:56.099Z,39.41
2022-10-18T10:38:28.463Z,38.45
2022-10-18T10:40:58.235Z,37.58
2022-10-18T10:43:37.451Z,36.77
2022-10-18T10:46:10.977Z,37.99
2022-10-18T10:48:48.613Z,37.81
2022-10-18T10:51:29.662Z,37.13
2022-10-18T10:54:01.971Z,37.01
2022-10-18T10:56:34.385Z,37.09
2022-10-18T10:59:14.928Z,36.81
2022-10-18T11:01:44.345Z,37.29
2022-10-18T11:04:26.764Z,37.25
2022-10-18T11:07:12.442Z,37.45
2022-10-18T11:09:59.899Z,37.16
2022-10-18T11:12:33.663Z,37.18
2022-10-18T11:15:12.362Z,36.83
2022-10-18T11:18:00.248Z,37.23
2022-10-18T11:20:32.778Z,37.58
2022-10-18T11:23:18.537Z,37.34
2022-10-18T11:26:13.359Z,36.94
2022-10-18T11:29:02.327Z,36.28
2022-10-18T11:31:36.199Z,37.31
2022-10-18T11:34:10.778Z,37.56
2022-10-18T11:36:57.827Z,36.36
2022-10-18T11:39:39.041Z,36.00
2022-10-18T11:42:27.755Z,36.00
2022-10-18T11:45:17.974Z,35.79
2022-10-18T11:47:50.941Z,36.14
2022-10-18T11:50:42.600Z,34.99
2022-10-18T11:53:32.188Z,35.18
2022-10-18T11:56:14.352Z,35.63
2022-10-18T11:58:57.813Z,35.85
2022-10-18T12:01:32.603Z,36.11
2022-10-18T12:04:14.770Z,36.19
2022-10-18T12:06:50.919Z,35.52
2022-10-18T12:09:40.635Z,35.47
2022-10-18T12:12:18.522Z,35.79
2022-10-18T12:14:50.930Z,35.64
2022-10-18T12:17:42.910Z,35.27
2022-10-18T12:20:21.259Z,35.36
2022-10-18T12:23:04.353Z,35.63
2022-10-18T12:25:38.730Z,35.26
2022-10-18T12:28:16.944Z,34.97
2022-10-18T12:31:05.215Z,35.13
2022-10-18T12:33:43.535Z,34.76
2022-10-18T12:36:22.669Z,35.06
2022-10-18T12:38:59.668Z,34.94
2022-10-18T12:41:30.603Z,35.05
2022-10-18T12:44:02.431Z,34.86
2022-10-18T12:47:05.540Z,34.76
2022-10-18T12:49:39.129Z,35.28
2022-10-18T12:52:21.937Z,35.24
2022-10-18T12:55:06.313Z,35.07
2022-10-18T12:57:53.854Z,35.24
2022-10-18T13:00:32.366Z,35.23
2022-10-18T13:03:13.043Z,35.26
2022-10-18T13:05:53.512Z,35.80
2022-10-18T13:08:39.953Z,35.47
2022-10-18T13:11:12.770Z,35.83
2022-10-18T13:13:51.054Z,35.91
2022-10-18T13:16:29.542Z,36.12
2022-10-18T13:19:00.617Z,35.36
2022-10-18T13:21:47.113Z,35.01
2022-10-18T13:24:33.318Z,35.98
2022-10-18T13:30:13.357Z,36.49
2022-10-18T13:32:54.134Z,36.46
2022-10-18T13:35:42.074Z,35.81
2022-10-18T13:38:32.421Z,35.28
2022-10-18T13:41:02.948Z,37.67
2022-10-18T13:43:52.598Z,38.16
2022-10-18T13:46:34.034Z,39.19
2022-10-18T13:49:15.567Z,40.01
2022-10-18T13:51:55.463Z,41.09
2022-10-18T13:54:35.327Z,42.28
2022-10-18T13:57:09.573Z,42.67
2022-10-18T13:59:38.889Z,42.80
2022-10-18T14:02:16.800Z,42.37
2022-10-18T14:05:24.955Z,42.45
2022-10-18T14:08:03.850Z,42.47
2022-10-18T14:11:00.850Z,42.20
2022-10-18T14:13:34.941Z,42.89
2022-10-18T14:16:17.733Z,43.61
2022-10-18T14:18:48.589Z,43.59
2022-10-18T14:21:30.982Z,44.51
2022-10-18T14:24:01.340Z,44.23
2022-10-18T14:26:31.436Z,44.81
2022-10-18T14:29:06.439Z,45.15
2022-10-18T14:31:36.134Z,45.39
2022-10-18T14:34:05.266Z,45.85
2022-10-18T14:36:41.295Z,45.90
2022-10-18T14:39:18.864Z,45.91
2022-10-18T14:41:50.167Z,46.24
2022-10-18T14:44:21.678Z,46.52
2022-10-18T14:47:00.192Z,46.98
2022-10-18T14:49:29.807Z,46.69
2022-10-18T14:52:00.788Z,46.88
2022-10-18T14:54:31.895Z,46.75
2022-10-18T14:57:03.218Z,46.77
2022-10-18T14:59:40.914Z,46.75
2022-10-18T15:02:15.071Z,47.01
2022-10-18T15:04:47.862Z,47.68
2022-10-18T15:07:18.100Z,48.09
2022-10-18T15:09:47.887Z,48.41
2022-10-18T15:12:21.740Z,48.61
2022-10-18T15:14:51.603Z,49.41
2022-10-18T15:17:27.934Z,50.02
2022-10-18T15:20:05.056Z,50.47
2022-10-18T15:22:37.353Z,51.13
2022-10-18T15:25:11.678Z,51.74
2022-10-18T15:30:24.301Z,52.48
2022-10-18T15:33:00.213Z,52.97
2022-10-18T15:35:33.811Z,52.84
2022-10-18T15:38:23.303Z,53.08
2022-10-18T15:40:53.088Z,53.41
2022-10-18T15:43:25.301Z,53.80
2022-10-18T15:46:01.612Z,53.76
2022-10-18T15:48:36.853Z,53.72
2022-10-18T15:51:26.945Z,53.82
2022-10-18T15:53:55.392Z,54.69
2022-10-18T15:56:28.335Z,55.09
2022-10-18T15:58:59.610Z,55.36
2022-10-18T16:01:32.858Z,55.21
2022-10-18T16:04:02.978Z,55.64
2022-10-18T16:06:35.564Z,55.91
2022-10-18T16:09:05.863Z,55.93
2022-10-18T16:11:36.968Z,55.80
2022-10-18T16:14:07.449Z,56.34
2022-10-18T16:16:37.578Z,56.99
2022-10-18T16:19:07.922Z,57.49
2022-10-18T16:21:38.621Z,57.53
2022-10-18T16:24:07.251Z,57.73
2022-10-18T16:26:37.522Z,58.16
2022-10-18T16:29:07.972Z,58.29
2022-10-18T16:31:37.608Z,58.69
2022-10-18T16:34:11.122Z,59.19
2022-10-18T16:36:42.559Z,60.16
2022-10-18T16:39:16.093Z,60.94
2022-10-18T16:41:45.886Z,60.62
2022-10-18T16:44:16.769Z,60.51
2022-10-18T16:46:48.184Z,61.20
2022-10-18T16:49:24.380Z,61.89
2022-10-18T16:51:55.380Z,62.29
2022-10-18T16:54:24.043Z,62.18
2022-10-18T16:56:55.891Z,61.96
2022-10-18T16:59:29.635Z,61.60
2022-10-18T17:02:06.338Z,61.79
2022-10-18T17:04:35.629Z,62.61
2022-10-18T17:07:05.693Z,62.86
2022-10-18T17:09:37.346Z,63.53
2022-10-18T17:12:06.809Z,63.53
2022-10-18T17:14:37.272Z,63.10
2022-10-18T17:17:09.588Z,63.87
2022-10-18T17:19:39.246Z,64.71
2022-10-18T17:22:09.000Z,64.60
2022-10-18T17:24:37.496Z,64.72
2022-10-18T17:27:07.248Z,65.00
2022-10-18T17:29:36.694Z,64.84
2022-10-18T17:32:06.155Z,64.87
2022-10-18T17:34:36.453Z,65.36
2022-10-18T17:37:06.287Z,65.57
2022-10-18T17:39:36.238Z,66.11
2022-10-18T17:42:05.929Z,66.59
2022-10-18T17:44:35.626Z,66.21
2022-10-18T17:47:05.108Z,65.26
2022-10-18T17:49:36.114Z,65.01
2022-10-18T17:52:07.125Z,64.97
2022-10-18T17:54:38.655Z,64.79
2022-10-18T17:57:08.300Z,66.35
2022-10-18T17:59:37.265Z,66.67
2022-10-18T18:02:06.809Z,66.51
2022-10-18T18:04:36.477Z,65.21
2022-10-18T18:07:05.649Z,65.42
2022-10-18T18:09:35.426Z,66.19
2022-10-18T18:12:04.993Z,66.36
2022-10-18T18:14:34.587Z,66.57
2022-10-18T18:17:02.953Z,67.15
2022-10-18T18:19:32.558Z,67.54
2022-10-18T18:22:02.061Z,68.66
2022-10-18T18:24:32.290Z,68.12
2022-10-18T18:27:01.502Z,68.37
2022-10-18T18:29:31.038Z,68.31
2022-10-18T18:32:00.153Z,68.20
2022-10-18T18:34:29.893Z,68.15
2022-10-18T18:36:59.475Z,68.01
2022-10-18T18:39:30.049Z,68.38
2022-10-18T18:41:58.424Z,68.70
2022-10-18T18:44:29.931Z,68.87
2022-10-18T18:46:59.620Z,69.23
2022-10-18T18:49:28.993Z,69.07
2022-10-18T18:51:58.904Z,68.92
2022-10-18T18:54:30.101Z,68.89
2022-10-18T18:56:59.944Z,68.83
2022-10-18T18:59:28.971Z,69.35
2022-10-18T19:01:58.637Z,69.70
2022-10-18T19:04:27.066Z,70.32
2022-10-18T19:06:56.637Z,70.47
2022-10-18T19:09:27.642Z,70.24
2022-10-18T19:11:57.155Z,70.73
2022-10-18T19:14:26.703Z,69.94
2022-10-18T19:16:59.245Z,71.09
2022-10-18T19:19:30.387Z,70.50
2022-10-18T19:22:01.625Z,70.54
2022-10-18T19:24:31.286Z,71.10
2022-10-18T19:27:01.911Z,71.15
2022-10-18T19:29:35.062Z,71.29
2022-10-18T19:32:06.177Z,71.24
2022-10-18T19:34:35.805Z,71.64
2022-10-18T19:37:05.012Z,71.78
2022-10-18T19:39:35.131Z,71.99
2022-10-18T19:42:05.811Z,71.28
2022-10-18T19:44:36.423Z,71.02
2022-10-18T19:47:05.896Z,71.56
2022-10-18T19:49:35.337Z,71.77
2022-10-18T19:52:04.912Z,71.82
2022-10-18T19:54:36.171Z,71.88
2022-10-18T19:57:05.912Z,71.84
2022-10-18T19:59:37.326Z,71.71
2022-10-18T20:02:06.903Z,71.32
2022-10-18T20:04:38.538Z,71.12
2022-10-18T20:07:08.069Z,71.01
2022-10-18T20:09:37.294Z,71.11
2022-10-18T20:12:06.555Z,71.84
2022-10-18T20:14:35.755Z,71.16
2022-10-18T20:17:06.588Z,70.91
2022-10-18T20:19:35.077Z,71.38
2022-10-18T20:22:03.496Z,72.00
2022-10-18T20:24:32.975Z,72.26
2022-10-18T20:27:02.436Z,72.22
2022-10-18T20:29:33.610Z,72.15
2022-10-18T20:32:03.127Z,72.69
2022-10-18T20:34:32.464Z,72.23
2022-10-18T20:37:01.646Z,72.41
2022-10-18T20:39:30.948Z,73.67
2022-10-18T20:41:59.381Z,73.53
2022-10-18T20:44:31.122Z,73.49
2022-10-18T20:47:00.269Z,73.60
2022-10-18T20:49:31.354Z,74.14
2022-10-18T20:52:00.418Z,73.52
2022-10-18T20:54:29.577Z,73.62
2022-10-18T20:56:58.575Z,73.44
2022-10-18T20:59:27.734Z,72.76
2022-10-18T21:01:56.984Z,72.76
2022-10-18T21:04:26.178Z,72.75
2022-10-18T21:06:55.288Z,72.76
2022-10-18T21:09:24.590Z,72.47
2022-10-18T21:11:56.668Z,72.76
2022-10-18T21:14:26.036Z,72.45
2022-10-18T21:16:55.266Z,71.98
2022-10-18T21:19:26.226Z,72.06
2022-10-18T21:21:56.477Z,72.12
2022-10-18T21:24:26.260Z,72.65
2022-10-18T21:26:56.348Z,72.28
2022-10-18T21:29:25.570Z,72.10
2022-10-18T21:31:55.857Z,72.69
2022-10-18T21:34:24.337Z,72.29
2022-10-18T21:36:53.629Z,72.61
2022-10-18T21:41:58.701Z,72.27
2022-10-18T21:44:27.920Z,73.19
2022-10-18T21:46:57.328Z,73.77
2022-10-18T21:49:30.054Z,73.75
2022-10-18T21:51:59.282Z,73.22
2022-10-18T21:54:28.421Z,73.73
2022-10-18T21:56:57.610Z,74.24
2022-10-18T21:59:26.789Z,74.02
2022-10-18T22:01:56.128Z,73.78
2022-10-18T22:04:25.770Z,73.57
2022-10-18T22:06:54.526Z,73.53
2022-10-18T22:09:23.648Z,73.40
2022-10-18T22:11:53.737Z,73.37
2022-10-18T22:14:23.062Z,73.19
2022-10-18T22:16:52.515Z,73.15
2022-10-18T22:19:22.141Z,73.94
2022-10-18T22:21:52.790Z,74.39
2022-10-18T22:24:24.420Z,73.42
2022-10-18T22:26:53.527Z,73.32
2022-10-18T22:29:22.749Z,73.85
2022-10-18T22:31:52.664Z,73.59
2022-10-18T22:34:23.542Z,73.51
2022-10-18T22:36:53.121Z,73.84
2022-10-18T22:39:22.443Z,74.00
2022-10-18T22:41:56.726Z,74.06
2022-10-18T22:44:26.302Z,72.89
2022-10-18T22:46:55.800Z,72.91
2022-10-18T22:49:24.959Z,72.77
2022-10-18T22:51:54.623Z,72.98
2022-10-18T22:54:24.120Z,72.88
2022-10-18T22:56:53.771Z,72.86
2022-10-18T22:59:22.547Z,72.92
2022-10-18T23:01:55.279Z,73.00
2022-10-18T23:04:24.668Z,72.43
2022-10-18T23:06:54.292Z,72.30
2022-10-18T23:09:22.779Z,72.61
2022-10-18T23:11:53.538Z,73.07
2022-10-18T23:14:22.994Z,73.60
2022-10-18T23:16:52.515Z,73.87
2022-10-18T23:19:21.809Z,74.14
2022-10-18T23:21:51.349Z,74.13
2022-10-18T23:24:20.941Z,74.32
2022-10-18T23:26:50.556Z,74.38
2022-10-18T23:29:19.065Z,74.18
2022-10-18T23:31:48.203Z,74.46
2022-10-18T23:34:17.665Z,74.31
2022-10-18T23:36:48.052Z,74.04
2022-10-18T23:39:17.638Z,73.62
2022-10-18T23:41:46.859Z,73.32
2022-10-18T23:44:16.143Z,73.68
2022-10-18T23:46:45.253Z,74.07
2022-10-18T23:49:14.528Z,73.67
2022-10-18T23:51:42.979Z,74.18
2022-10-18T23:54:12.244Z,74.82
2022-10-18T23:56:41.416Z,74.56
2022-10-18T23:59:10.647Z,75.23
